Time;durP1;ratioP1;P1;durP2;ratioP2;P2;SDS_P1;SDS_P2;PMS_P1;PMS_P2;Temp;Humidity;BMP_temperature;BMP_pressure;BME280_temperature;BME280_humidity;BME280_pressure;Samples;Min_cycle;Max_cycle;Signal;HPM_P1;HPM_P2
2022/03/19 00:01:24;;;;;;;29.48;20.38;;;;;;;7.89;55.26;97411.94;10257358;28;97984;-85
2022/03/19 00:06:29;;;;;;;26.75;20.30;;;;;;;7.81;55.02;97406.38;10268256;28;100215;-85
2022/03/19 00:11:32;;;;;;;28.77;20.58;;;;;;;7.74;54.83;97410.34;10278800;28;98109;-85
2022/03/19 00:16:37;;;;;;;26.95;19.42;;;;;;;7.83;55.15;97412.31;10264093;28;100004;-85
2022/03/19 00:21:41;;;;;;;27.45;18.38;;;;;;;7.79;54.46;97413.47;10293445;28;97602;-85
2022/03/19 00:26:44;;;;;;;28.15;18.23;;;;;;;7.77;54.64;97415.31;10293687;28;96857;-84
2022/03/19 00:31:48;;;;;;;27.85;19.40;;;;;;;7.76;54.36;97419.69;10292071;28;96949;-84
2022/03/19 00:36:51;;;;;;;24.03;18.00;;;;;;;7.81;54.26;97427.19;10293698;28;96741;-84
2022/03/19 00:41:54;;;;;;;28.33;18.63;;;;;;;7.82;54.18;97423.66;10289363;28;96798;-84
2022/03/19 00:46:59;;;;;;;26.10;17.65;;;;;;;7.67;53.68;97424.69;10289632;28;96802;-84
2022/03/19 00:52:04;;;;;;;24.02;17.10;;;;;;;7.68;53.82;97428.94;10260930;28;96983;-84
2022/03/19 00:57:07;;;;;;;24.73;18.20;;;;;;;7.64;53.78;97430.06;10283403;28;96892;-85
2022/03/19 01:02:11;;;;;;;24.73;18.10;;;;;;;7.66;53.80;97429.03;10267396;28;96786;-84
2022/03/19 01:07:14;;;;;;;26.33;17.90;;;;;;;7.65;53.70;97434.31;10268004;28;96800;-85
2022/03/19 01:12:17;;;;;;;25.10;17.83;;;;;;;7.59;53.61;97423.38;10289959;28;97976;-85
2022/03/19 01:17:21;;;;;;;23.42;17.83;;;;;;;7.62;53.67;97434.56;10284450;28;98389;-85
2022/03/19 01:22:26;;;;;;;24.95;17.40;;;;;;;7.61;53.76;97436.28;10270487;28;96773;-85
2022/03/19 01:27:29;;;;;;;25.33;17.67;;;;;;;7.57;53.50;97430.47;10265494;28;97384;-85
2022/03/19 01:32:35;;;;;;;23.13;16.85;;;;;;;7.56;53.84;97427.97;10267237;28;98056;-84
2022/03/19 01:37:38;;;;;;;23.70;17.70;;;;;;;7.49;53.82;97427.56;10282541;28;96857;-85
2022/03/19 01:42:44;;;;;;;24.33;17.23;;;;;;;7.54;53.30;97435.03;10264105;28;96911;-85
2022/03/19 01:47:49;;;;;;;23.13;16.85;;;;;;;7.47;53.86;97438.97;10266729;28;96940;-85
2022/03/19 01:52:53;;;;;;;24.55;17.27;;;;;;;7.41;53.95;97425.44;10272115;28;96941;-85
2022/03/19 01:57:58;;;;;;;25.17;16.35;;;;;;;7.42;53.63;97421.06;10290584;28;97232;-85
2022/03/19 02:03:02;;;;;;;24.05;16.85;;;;;;;7.42;53.56;97426.25;10283361;28;96954;-85
2022/03/19 02:08:06;;;;;;;23.42;17.05;;;;;;;7.36;53.75;97419.69;10271362;28;97090;-84
2022/03/19 02:13:09;;;;;;;25.55;17.67;;;;;;;7.35;53.96;97409.38;10259164;28;96900;-85
2022/03/19 02:18:15;;;;;;;23.07;16.73;;;;;;;7.25;54.11;97413.50;10265856;28;97066;-84
2022/03/19 02:28:44;;;;;;;24.13;16.77;;;;;;;7.09;54.37;97403.25;10271174;28;98580;-85
2022/03/19 02:33:47;;;;;;;23.75;16.88;;;;;;;7.11;54.19;97407.44;10267630;28;96954;-85
2022/03/19 02:38:51;;;;;;;23.58;17.23;;;;;;;7.16;54.13;97400.19;10283329;28;97457;-84
2022/03/19 02:43:54;;;;;;;24.70;17.60;;;;;;;6.99;54.62;97403.03;10276218;28;96942;-83
2022/03/19 02:48:57;;;;;;;34.20;23.88;;;;;;;6.97;54.60;97404.88;10272818;28;96776;-85
2022/03/19 02:54:03;;;;;;;25.13;17.33;;;;;;;6.98;54.71;97401.34;10285554;28;96996;-84
2022/03/19 02:59:07;;;;;;;25.65;18.45;;;;;;;6.87;54.41;97407.19;10272750;28;96916;-84
2022/03/19 03:04:10;;;;;;;25.50;17.58;;;;;;;6.71;55.08;97404.72;10288574;28;96766;-84
2022/03/19 03:09:15;;;;;;;23.85;17.00;;;;;;;6.71;54.66;97407.31;10274053;28;96882;-84
2022/03/19 03:14:20;;;;;;;25.40;17.55;;;;;;;6.65;54.76;97399.91;10263831;28;96753;-84
2022/03/19 03:19:23;;;;;;;25.07;17.43;;;;;;;6.60;55.03;97404.53;10262924;28;98105;-85
2022/03/19 03:24:29;;;;;;;22.75;17.20;;;;;;;6.58;55.11;97406.41;10270856;28;97725;-85
2022/03/19 03:29:32;;;;;;;22.35;16.75;;;;;;;6.48;55.07;97403.53;10264178;28;97989;-84
2022/03/19 03:34:35;;;;;;;23.13;17.63;;;;;;;6.42;55.34;97401.31;10274724;28;96956;-84
2022/03/19 03:39:39;;;;;;;23.80;17.02;;;;;;;6.42;54.89;97403.91;10265602;28;96827;-84
2022/03/19 03:44:42;;;;;;;24.63;18.80;;;;;;;6.30;55.30;97407.25;10272928;28;96917;-84
2022/03/19 03:49:44;;;;;;;26.42;17.58;;;;;;;6.24;55.64;97405.84;10295625;28;97165;-84
2022/03/19 03:54:49;;;;;;;27.77;16.73;;;;;;;6.20;55.49;97414.75;10279841;28;97722;-84
2022/03/19 03:59:52;;;;;;;25.10;17.15;;;;;;;6.06;55.46;97407.78;10270480;28;96943;-84
2022/03/19 04:04:55;;;;;;;24.00;16.55;;;;;;;5.90;55.85;97408.69;10279660;28;96808;-83
2022/03/19 04:10:00;;;;;;;24.58;16.45;;;;;;;5.86;55.99;97409.78;10283254;28;98385;-84
2022/03/19 04:15:03;;;;;;;22.27;16.97;;;;;;;5.77;56.16;97412.06;10271573;28;97472;-84
2022/03/19 04:20:07;;;;;;;23.83;17.02;;;;;;;5.71;56.38;97413.28;10266820;28;96888;-84
2022/03/19 04:25:14;;;;;;;24.13;17.10;;;;;;;5.56;56.35;97414.97;10278665;28;97084;-84
2022/03/19 04:30:18;;;;;;;23.55;17.55;;;;;;;5.52;56.65;97416.91;10290881;28;96868;-84
2022/03/19 04:40:45;;;;;;;24.92;17.33;;;;;;;5.34;57.36;97426.56;10264589;28;97153;-84
2022/03/19 04:45:48;;;;;;;25.67;17.10;;;;;;;5.23;57.74;97434.09;10281527;28;96957;-84
2022/03/19 04:50:51;;;;;;;31.17;19.40;;;;;;;5.32;57.72;97432.75;10286965;28;98745;-84
2022/03/19 04:55:55;;;;;;;29.58;19.10;;;;;;;5.23;57.72;97431.50;10273398;28;96885;-84
2022/03/19 05:00:58;;;;;;;25.97;18.57;;;;;;;4.98;58.19;97438.97;10275740;28;96857;-84
2022/03/19 05:06:01;;;;;;;29.70;19.08;;;;;;;4.65;59.73;97443.28;10276331;28;97596;-85
2022/03/19 05:11:16;;;;;;;32.70;20.23;;;;;;;4.37;60.20;97439.56;10262723;28;96934;-85
2022/03/19 05:16:20;;;;;;;26.80;19.03;;;;;;;4.36;60.27;97447.41;10275869;28;97338;-84
2022/03/19 05:21:23;;;;;;;29.15;18.88;;;;;;;4.42;59.87;97446.22;10275223;28;98116;-85
2022/03/19 05:26:27;;;;;;;25.35;17.63;;;;;;;4.41;60.08;97454.94;10282460;28;96972;-85
2022/03/19 05:31:30;;;;;;;25.00;17.70;;;;;;;4.43;59.95;97453.91;10278824;28;96774;-85
2022/03/19 05:36:33;;;;;;;27.00;17.30;;;;;;;4.50;59.67;97457.03;10282955;28;97471;-85
2022/03/19 05:41:37;;;;;;;28.05;17.92;;;;;;;4.48;60.09;97456.28;10276140;28;97306;-85
2022/03/19 05:46:40;;;;;;;27.52;17.25;;;;;;;4.35;59.67;97462.09;10260763;28;97264;-85
2022/03/19 05:51:44;;;;;;;26.75;17.67;;;;;;;4.27;60.02;97460.81;10280495;28;97061;-85
2022/03/19 05:56:48;;;;;;;27.13;19.15;;;;;;;4.18;60.53;97457.78;10289736;28;100124;-84
2022/03/19 06:01:51;;;;;;;30.80;19.40;;;;;;;4.12;60.86;97460.66;10288525;28;98002;-85
2022/03/19 06:06:54;;;;;;;30.65;20.00;;;;;;;4.03;61.04;97466.31;10290082;28;98030;-84
2022/03/19 06:11:58;;;;;;;31.20;19.60;;;;;;;4.03;60.98;97461.13;10285876;28;97100;-85
2022/03/19 06:17:01;;;;;;;31.75;20.20;;;;;;;3.86;62.26;97459.38;10267469;28;96888;-84
2022/03/19 06:22:05;;;;;;;27.75;17.73;;;;;;;3.92;62.08;97466.03;10285147;28;96944;-84
2022/03/19 06:27:09;;;;;;;29.30;19.65;;;;;;;3.97;61.69;97467.47;10276822;28;97084;-84
2022/03/19 06:32:12;;;;;;;28.03;18.73;;;;;;;3.86;62.91;97463.72;10289287;28;96895;-85
2022/03/19 06:37:21;;;;;;;28.67;18.85;;;;;;;3.69;64.14;97473.16;10288424;28;100163;-84
2022/03/19 06:42:26;;;;;;;26.67;17.23;;;;;;;3.87;63.34;97468.00;10267238;28;96869;-84
2022/03/19 06:47:30;;;;;;;28.50;18.00;;;;;;;3.95;63.58;97464.13;10282630;28;97737;-85
2022/03/19 06:52:34;;;;;;;27.13;18.58;;;;;;;4.11;63.32;97463.34;10287865;28;97847;-84
2022/03/19 06:57:38;;;;;;;28.35;18.00;;;;;;;4.21;63.34;97461.94;10273941;28;96844;-84
2022/03/19 07:02:47;;;;;;;24.98;17.50;;;;;;;4.36;62.74;97453.41;10288839;28;96934;-84
2022/03/19 07:07:52;;;;;;;26.58;17.10;;;;;;;4.52;62.22;97462.94;10285384;28;98662;-84
2022/03/19 07:12:57;;;;;;;26.33;17.17;;;;;;;4.75;61.58;97459.19;10292539;28;98585;-84
2022/03/19 07:18:02;;;;;;;27.58;18.70;;;;;;;4.98;61.23;97449.34;10287004;28;98247;-85
2022/03/19 07:23:07;;;;;;;30.48;20.98;;;;;;;5.19;61.04;97452.50;10294150;28;96993;-85
2022/03/19 07:28:13;;;;;;;;;;;;;;;5.38;60.63;97454.91;10261230;28;96912;-85
2022/03/19 07:33:16;;;;;;;29.23;19.38;;;;;;;5.52;60.59;97449.78;10286641;28;96966;-85
2022/03/19 07:38:19;;;;;;;41.97;27.83;;;;;;;5.71;60.47;97450.41;10293101;28;98641;-85
2022/03/19 07:43:24;;;;;;;46.53;29.77;;;;;;;5.86;60.70;97448.69;10263081;28;96845;-85
2022/03/19 07:48:27;;;;;;;31.57;20.87;;;;;;;6.05;60.41;97453.66;10284656;28;97708;-85
2022/03/19 07:53:30;;;;;;;27.15;18.85;;;;;;;6.21;59.99;97453.56;10278329;28;98776;-85
2022/03/19 07:58:34;;;;;;;28.23;18.27;;;;;;;6.40;59.10;97444.66;10264087;28;96882;-85
2022/03/19 08:03:38;;;;;;;25.48;17.75;;;;;;;6.59;58.38;97439.19;10275777;28;96804;-85
2022/03/19 08:08:41;;;;;;;27.38;17.25;;;;;;;6.77;57.88;97434.66;10292697;28;97209;-85
2022/03/19 08:13:46;;;;;;;24.38;17.52;;;;;;;6.96;57.00;97435.22;10292919;28;97007;-85
2022/03/19 08:18:49;;;;;;;23.57;17.37;;;;;;;7.13;56.65;97434.16;10277128;28;96949;-85
2022/03/19 08:23:52;;;;;;;23.42;16.60;;;;;;;7.25;56.10;97423.91;10270836;28;96941;-85
2022/03/19 08:28:57;;;;;;;23.02;16.77;;;;;;;7.43;55.28;97430.53;10264544;28;97049;-85
2022/03/19 08:34:00;;;;;;;27.50;18.55;;;;;;;7.54;54.79;97430.66;10290580;28;98740;-85
2022/03/19 08:44:25;;;;;;;23.83;17.42;;;;;;;7.51;54.01;97427.41;10290978;28;96925;-85
2022/03/19 08:49:30;;;;;;;28.75;18.38;;;;;;;7.44;54.23;97429.63;10290225;28;97139;-85
2022/03/19 08:54:33;;;;;;;22.15;17.38;;;;;;;7.68;53.62;97421.13;10291541;28;96868;-85
2022/03/19 08:59:37;;;;;;;28.38;17.50;;;;;;;7.84;53.36;97414.00;10291310;28;97063;-85
2022/03/19 09:04:40;;;;;;;24.77;17.67;;;;;;;7.85;52.93;97412.22;10290710;28;102701;-85
2022/03/19 09:09:52;;;;;;;26.75;18.42;;;;;;;8.07;52.29;97416.84;10290850;28;97313;-85
2022/03/19 09:15:12;;;;;;;25.10;18.03;;;;;;;8.20;52.76;97417.66;10290524;28;96929;-85
2022/03/19 09:20:15;;;;;;;24.58;18.00;;;;;;;8.43;52.11;97417.84;10289495;28;97004;-85
2022/03/19 09:25:18;;;;;;;25.65;18.30;;;;;;;8.54;52.16;97415.34;10274503;28;96954;-85
2022/03/19 09:30:22;;;;;;;24.08;17.67;;;;;;;8.58;52.47;97411.59;10272435;28;97176;-85
2022/03/19 09:35:25;;;;;;;28.07;18.90;;;;;;;8.65;52.24;97406.78;10289119;28;97076;-85
2022/03/19 09:40:30;;;;;;;27.67;18.13;;;;;;;8.75;51.74;97401.78;10290117;28;96972;-85
2022/03/19 09:45:38;;;;;;;23.17;17.85;;;;;;;8.83;51.79;97400.31;10288210;28;96969;-85
2022/03/19 09:50:41;;;;;;;27.10;18.80;;;;;;;8.89;51.90;97393.81;10272203;28;101646;-85
2022/03/19 09:55:44;;;;;;;25.63;18.50;;;;;;;8.91;52.12;97384.09;10285684;28;96974;-85
2022/03/19 10:00:48;;;;;;;24.45;18.52;;;;;;;8.94;52.17;97380.47;10285766;28;96932;-85
2022/03/19 10:11:15;;;;;;;26.50;19.60;;;;;;;9.16;51.72;97371.91;10287312;28;96843;-85
2022/03/19 10:16:23;;;;;;;26.23;19.65;;;;;;;9.21;51.65;97375.03;10288900;28;97373;-85
2022/03/19 10:21:28;;;;;;;25.98;18.83;;;;;;;9.31;51.84;97378.63;10271755;28;96872;-85
2022/03/19 10:26:33;;;;;;;28.03;19.80;;;;;;;9.41;51.56;97369.19;10282639;28;98098;-85
2022/03/19 10:31:38;;;;;;;25.48;19.25;;;;;;;9.53;51.43;97367.50;10267266;28;97180;-85
2022/03/19 10:36:43;;;;;;;28.50;20.83;;;;;;;9.72;51.73;97361.75;10270137;28;99566;-85
2022/03/19 10:41:46;;;;;;;26.13;18.83;;;;;;;9.88;50.88;97358.81;10278245;28;96931;-85
2022/03/19 10:46:53;;;;;;;27.92;19.85;;;;;;;10.04;51.22;97348.03;10286883;28;97010;-85
2022/03/19 10:51:57;;;;;;;28.02;20.13;;;;;;;10.11;50.65;97345.78;10285720;28;97001;-85
2022/03/19 10:57:01;;;;;;;27.33;19.60;;;;;;;10.16;50.76;97334.03;10285425;28;98557;-85
2022/03/19 11:02:06;;;;;;;26.63;19.83;;;;;;;10.21;50.63;97331.06;10288393;28;97519;-85
2022/03/19 11:07:12;;;;;;;28.35;20.02;;;;;;;10.33;50.42;97322.28;10287769;28;96942;-85
2022/03/19 11:12:20;;;;;;;27.55;20.10;;;;;;;10.46;50.39;97313.47;10290957;28;96981;-85
2022/03/19 11:17:27;;;;;;;28.60;21.50;;;;;;;10.52;50.32;97313.00;10270235;28;96997;-85
2022/03/19 11:22:39;;;;;;;27.02;21.17;;;;;;;10.54;49.83;97303.28;10273366;28;98503;-85
2022/03/19 11:27:45;;;;;;;30.98;20.65;;;;;;;10.67;50.14;97300.50;10288162;28;97163;-85
2022/03/19 11:33:04;;;;;;;29.40;20.90;;;;;;;10.61;50.24;97297.41;10267733;28;96964;-85
2022/03/19 11:38:11;;;;;;;28.40;20.73;;;;;;;10.48;49.81;97290.69;10273569;28;98083;-85
2022/03/19 11:43:19;;;;;;;29.30;20.45;;;;;;;10.37;50.63;97283.69;10274778;28;96845;-85
2022/03/19 11:48:54;;;;;;;29.23;21.13;;;;;;;10.59;50.19;97272.38;10286688;28;96977;-85
2022/03/19 11:54:01;;;;;;;29.77;21.38;;;;;;;10.52;49.98;97263.38;10149480;28;98951;-85
2022/03/19 11:59:06;;;;;;;32.00;21.55;;;;;;;10.59;50.23;97257.53;10139718;28;97682;-85
2022/03/19 12:04:11;;;;;;;31.05;21.50;;;;;;;10.72;50.15;97248.69;10159304;28;97228;-85
2022/03/19 12:09:14;;;;;;;33.80;21.52;;;;;;;10.59;50.67;97241.84;10158946;28;97105;-85
2022/03/19 12:14:23;;;;;;;31.60;21.95;;;;;;;10.65;50.95;97231.84;10150225;28;98591;-85
2022/03/19 12:19:53;;;;;;;28.67;20.00;;;;;;;10.74;50.84;97233.75;10151732;28;98224;-85
2022/03/19 12:25:08;;;;;;;32.03;23.13;;;;;;;10.90;50.42;97213.22;10138181;28;96937;-85
2022/03/19 12:30:11;;;;;;;28.25;21.67;;;;;;;10.99;50.35;97212.47;10263518;28;96984;-85
2022/03/19 12:35:15;;;;;;;31.75;23.17;;;;;;;10.95;50.27;97205.03;10295115;28;97076;-85
2022/03/19 12:40:24;;;;;;;29.43;21.40;;;;;;;11.06;50.72;97196.28;10288567;28;97048;-85
2022/03/19 12:45:37;;;;;;;31.95;23.25;;;;;;;11.26;49.90;97186.75;10280256;28;97052;-85
2022/03/19 12:50:49;;;;;;;32.72;22.75;;;;;;;11.29;50.14;97173.44;10294709;28;96812;-85
2022/03/19 12:55:52;;;;;;;31.23;22.42;;;;;;;11.49;49.86;97166.56;10287962;28;98049;-84
2022/03/19 13:00:55;;;;;;;32.45;23.17;;;;;;;11.56;49.52;97162.44;10289706;28;97041;-85
2022/03/19 13:06:00;;;;;;;32.10;21.42;;;;;;;11.53;50.32;97150.44;10284689;28;98830;-85
2022/03/19 13:11:03;;;;;;;28.77;21.63;;;;;;;11.71;49.67;97142.81;10284811;28;97512;-85
2022/03/19 13:16:06;;;;;;;29.33;22.88;;;;;;;11.92;49.38;97136.69;10263258;28;96892;-85
2022/03/19 13:21:12;;;;;;;32.45;22.42;;;;;;;12.08;49.48;97121.28;10283711;28;96957;-85
2022/03/19 13:26:16;;;;;;;31.15;23.40;;;;;;;12.33;49.59;97113.84;10281252;28;96885;-85
2022/03/19 13:31:19;;;;;;;30.57;23.33;;;;;;;12.57;48.41;97110.00;10264819;28;98331;-85
2022/03/19 13:36:27;;;;;;;30.93;22.63;;;;;;;12.92;48.56;97093.69;10288111;28;98343;-85
2022/03/19 13:41:37;;;;;;;29.55;22.60;;;;;;;13.31;47.67;97082.25;10290290;28;97085;-85
2022/03/19 13:46:41;;;;;;;30.75;22.77;;;;;;;13.46;46.77;97072.94;10288594;28;96857;-85
2022/03/19 13:51:47;;;;;;;30.35;23.55;;;;;;;13.98;46.85;97067.97;10288142;28;97655;-85
2022/03/19 13:56:54;;;;;;;31.42;23.65;;;;;;;14.46;46.17;97057.25;10287747;28;97033;-85
2022/03/19 14:01:57;;;;;;;29.75;22.40;;;;;;;14.87;45.63;97050.47;10290053;28;97319;-85
2022/03/19 14:07:02;;;;;;;30.70;22.73;;;;;;;15.07;44.64;97035.28;10280422;28;99445;-86
2022/03/19 14:12:07;;;;;;;28.60;21.70;;;;;;;15.54;44.40;97031.38;10289747;28;96888;-85
2022/03/19 14:17:10;;;;;;;27.13;21.35;;;;;;;16.09;43.96;97029.25;10287677;28;96968;-86
2022/03/19 14:22:14;;;;;;;28.90;21.98;;;;;;;16.36;42.86;97017.56;10289620;28;98521;-85
2022/03/19 14:27:17;;;;;;;29.20;22.40;;;;;;;16.73;42.29;97006.50;10293171;28;98389;-85
2022/03/19 14:32:20;;;;;;;31.75;23.23;;;;;;;17.03;41.68;97004.13;10276158;28;98031;-86
2022/03/19 14:37:24;;;;;;;28.88;22.73;;;;;;;17.40;41.84;96993.94;10285678;28;97943;-85
2022/03/19 14:42:28;;;;;;;31.35;22.58;;;;;;;17.62;41.07;96992.34;10279862;28;98451;-85
2022/03/19 14:47:35;;;;;;;29.88;22.88;;;;;;;17.84;40.81;96985.47;10270451;28;97036;-86
2022/03/19 14:52:40;;;;;;;29.45;21.35;;;;;;;18.23;40.08;96976.59;10274937;28;96976;-85
2022/03/19 14:57:43;;;;;;;26.90;20.95;;;;;;;18.31;40.17;96969.44;10279753;28;97486;-86
2022/03/19 15:02:46;;;;;;;26.50;20.77;;;;;;;18.36;39.54;96965.41;10276110;28;98397;-86
2022/03/19 15:07:53;;;;;;;28.35;21.48;;;;;;;18.49;39.04;96955.84;10287322;28;97019;-85
2022/03/19 15:12:56;;;;;;;27.33;21.60;;;;;;;18.66;38.51;96953.88;10288884;28;96926;-86
2022/03/19 15:17:59;;;;;;;28.92;22.67;;;;;;;18.87;39.12;96952.38;10284750;28;97677;-86
2022/03/19 15:23:03;;;;;;;30.20;22.70;;;;;;;18.83;38.76;96946.59;10272602;28;97248;-85
2022/03/19 15:28:10;;;;;;;31.77;23.58;;;;;;;18.93;38.00;96942.88;10273161;28;98553;-84
2022/03/19 15:33:15;;;;;;;26.50;21.90;;;;;;;18.90;37.69;96935.28;10291237;28;96973;-83
2022/03/19 15:38:19;;;;;;;30.58;22.25;;;;;;;18.82;37.42;96929.06;10279503;28;97650;-84
2022/03/19 15:43:22;;;;;;;;;;;;;;;18.78;38.57;96922.50;10268306;28;96968;-84
2022/03/19 15:48:25;;;;;;;34.65;23.77;;;;;;;18.59;39.47;96918.56;10291317;28;99033;-83
2022/03/19 15:53:29;;;;;;;26.63;21.30;;;;;;;18.70;37.65;96918.09;10279613;28;97036;-83
2022/03/19 15:58:32;;;;;;;;;;;;;;;18.62;38.30;96917.38;10311544;28;97031;-83
2022/03/19 16:03:36;;;;;;;29.00;21.50;;;;;;;18.64;38.90;96910.91;10293370;28;96948;-83
2022/03/19 16:08:41;;;;;;;27.08;22.08;;;;;;;18.70;38.10;96909.34;10271568;28;96843;-84
2022/03/19 16:13:43;;;;;;;;;;;;;;;18.17;37.79;96914.69;10281531;28;96781;-83
2022/03/19 16:18:46;;;;;;;28.20;21.40;;;;;;;18.16;39.38;96904.28;10294070;28;96917;-83
2022/03/19 16:23:50;;;;;;;28.65;22.90;;;;;;;18.03;38.21;96910.16;10270529;28;97302;-83
2022/03/19 16:28:53;;;;;;;28.20;20.90;;;;;;;18.27;38.34;96904.66;10288337;28;97719;-83
2022/03/19 16:33:56;;;;;;;27.63;21.63;;;;;;;18.05;38.26;96893.13;10286172;28;98047;-83
2022/03/19 16:39:01;;;;;;;29.65;21.73;;;;;;;18.00;38.10;96899.97;10291555;28;96752;-83
2022/03/19 16:44:03;;;;;;;;;;;;;;;17.53;39.54;96897.28;10297597;28;97203;-83
2022/03/19 16:49:06;;;;;;;27.35;21.38;;;;;;;16.88;39.82;96895.81;10292187;28;96933;-83
2022/03/19 16:54:12;;;;;;;30.17;22.05;;;;;;;16.58;40.18;96892.91;10283863;28;97345;-84
2022/03/19 16:59:15;;;;;;;29.83;22.25;;;;;;;16.35;40.68;96898.09;10290595;28;96795;-83
2022/03/19 17:04:18;;;;;;;29.95;22.83;;;;;;;15.36;42.47;96902.50;10265660;28;98933;-83
2022/03/19 17:09:23;;;;;;;32.63;22.65;;;;;;;14.44;43.44;96904.13;10281404;28;97147;-83
2022/03/19 17:14:27;;;;;;;29.48;21.58;;;;;;;13.68;45.69;96902.88;10292552;28;97403;-83
2022/03/19 17:19:30;;;;;;;27.50;21.77;;;;;;;13.09;46.25;96905.88;10289306;28;98785;-83
2022/03/19 17:24:34;;;;;;;27.95;21.17;;;;;;;12.98;46.75;96899.06;10289277;28;96832;-83
2022/03/19 17:29:37;;;;;;;29.40;21.02;;;;;;;12.98;46.41;96906.09;10290058;28;96918;-81
2022/03/19 17:34:40;;;;;;;28.65;20.70;;;;;;;12.56;48.05;96909.13;10290459;28;99312;-83
2022/03/19 17:39:45;;;;;;;29.40;20.48;;;;;;;12.08;49.17;96901.28;10286121;28;98637;-83
2022/03/19 17:44:48;;;;;;;28.63;20.80;;;;;;;11.50;50.39;96906.53;10282835;28;96973;-83
2022/03/19 17:49:52;;;;;;;27.60;20.42;;;;;;;11.50;50.66;96902.16;10286619;28;97284;-83
2022/03/19 17:54:58;;;;;;;30.77;20.98;;;;;;;11.25;50.72;96905.25;10285796;28;96947;-83
2022/03/19 18:00:02;;;;;;;31.42;23.13;;;;;;;10.86;51.10;96906.00;10287206;28;96883;-83
2022/03/19 18:05:07;;;;;;;28.75;20.35;;;;;;;10.67;51.55;96903.31;10290211;28;96986;-83
2022/03/19 18:10:12;;;;;;;32.22;21.30;;;;;;;10.36;52.62;96911.97;10259078;28;99626;-83
2022/03/19 18:15:16;;;;;;;;;;;;;;;9.81;53.43;96901.75;10267240;28;97894;-82
2022/03/19 18:20:19;;;;;;;31.42;21.23;;;;;;;9.46;53.93;96908.06;10277010;28;98997;-83
2022/03/19 18:25:23;;;;;;;32.25;22.10;;;;;;;9.67;53.39;96913.31;10281409;28;96885;-83
2022/03/19 18:30:26;;;;;;;36.87;24.90;;;;;;;9.89;53.05;96908.97;10284436;28;97281;-85
2022/03/19 18:35:29;;;;;;;34.50;23.23;;;;;;;9.40;54.46;96912.91;10284341;28;99058;-85
2022/03/19 18:40:35;;;;;;;35.67;22.15;;;;;;;8.88;55.48;96915.28;10289109;28;98292;-85
2022/03/19 18:45:38;;;;;;;29.65;21.52;;;;;;;8.87;55.18;96917.06;10265390;28;97102;-85
2022/03/19 18:50:41;;;;;;;35.72;25.10;;;;;;;8.86;55.31;96914.59;10283004;28;96896;-85
2022/03/19 18:55:45;;;;;;;35.42;23.98;;;;;;;8.80;55.31;96915.91;10290047;28;97375;-85
2022/03/19 19:00:48;;;;;;;37.17;25.43;;;;;;;9.06;55.00;96919.06;10285227;28;96908;-85
2022/03/19 19:05:51;;;;;;;43.88;30.02;;;;;;;9.12;54.46;96920.34;10278477;28;98163;-86
2022/03/19 19:10:56;;;;;;;37.47;26.42;;;;;;;9.01;54.66;96913.38;10271393;28;96829;-86
2022/03/19 19:15:59;;;;;;;33.87;22.83;;;;;;;8.88;54.35;96915.28;10278321;28;96821;-86
2022/03/19 19:21:04;;;;;;;34.30;23.17;;;;;;;9.12;54.24;96912.53;10290600;28;96889;-86
2022/03/19 19:26:09;;;;;;;36.22;23.52;;;;;;;9.12;54.21;96907.31;10292379;28;98462;-86
2022/03/19 19:31:14;;;;;;;76.40;49.13;;;;;;;8.94;53.98;96907.00;10292364;28;97303;-86
2022/03/19 19:36:17;;;;;;;73.70;48.60;;;;;;;8.73;54.71;96909.53;10276987;28;98559;-86
2022/03/19 19:41:22;;;;;;;42.33;30.10;;;;;;;8.37;55.60;96910.59;10297782;28;98602;-86
2022/03/19 19:46:24;;;;;;;46.40;33.10;;;;;;;8.28;55.46;96905.13;10279642;28;97153;-86
2022/03/19 19:51:29;;;;;;;43.85;31.10;;;;;;;8.14;55.71;96900.16;10286896;28;97963;-86
2022/03/19 20:01:51;;;;;;;43.90;29.73;;;;;;;7.95;55.88;96898.94;10284903;28;100335;-86
2022/03/19 20:12:34;;;;;;;34.65;22.95;;;;;;;7.40;56.78;96892.59;10188744;28;96895;-86
2022/03/19 20:17:41;;;;;;;32.63;22.83;;;;;;;7.24;57.06;96897.28;10187937;28;97266;-86
2022/03/19 20:22:46;;;;;;;30.98;20.67;;;;;;;6.88;57.86;96899.75;10204835;28;97645;-87
2022/03/19 20:27:52;;;;;;;34.13;21.00;;;;;;;6.69;58.62;96897.63;10205535;28;97291;-85
2022/03/19 20:32:55;;;;;;;29.33;19.75;;;;;;;6.45;59.27;96902.75;10197944;28;97104;-85
2022/03/19 20:37:58;;;;;;;45.63;31.15;;;;;;;6.24;59.62;96898.13;10203598;28;96993;-85
2022/03/19 20:43:02;;;;;;;39.70;25.40;;;;;;;6.33;59.26;96890.63;10205994;28;96938;-85
2022/03/19 20:48:06;;;;;;;42.53;28.08;;;;;;;6.45;59.06;96901.00;10265864;28;97027;-84
2022/03/19 20:53:09;;;;;;;40.88;27.23;;;;;;;6.24;59.59;96899.84;10291377;28;100196;-85
2022/03/19 20:58:13;;;;;;;39.80;27.65;;;;;;;6.03;60.29;96905.56;10283127;28;97056;-85
2022/03/19 21:03:17;;;;;;;35.10;23.65;;;;;;;5.78;61.23;96906.38;10270318;28;98528;-85
2022/03/19 21:08:22;;;;;;;37.13;24.25;;;;;;;5.62;61.79;96897.97;10281348;28;97472;-86
2022/03/19 21:13:27;;;;;;;38.83;24.27;;;;;;;5.51;62.04;96903.84;10281911;28;98947;-85
2022/03/19 21:18:30;;;;;;;39.65;23.88;;;;;;;5.49;61.51;96900.50;10277902;28;97896;-85
2022/03/19 21:23:32;;;;;;;35.45;23.55;;;;;;;5.56;60.94;96901.78;10284826;28;97151;-85
2022/03/19 21:28:40;;;;;;;40.20;25.45;;;;;;;5.44;61.47;96902.56;10279359;28;96784;-85
2022/03/19 21:33:45;;;;;;;34.83;24.08;;;;;;;5.37;61.25;96907.31;10271059;28;98323;-85
2022/03/19 21:40:48;;;;;;;35.72;23.38;;;;;;;5.38;60.13;96914.19;10289958;28;98261;-85
2022/03/19 21:44:16;;;;;;;35.75;22.67;;;;;;;5.31;60.76;96915.50;10273816;28;98032;-85
2022/03/19 21:49:19;;;;;;;33.97;22.70;;;;;;;5.05;61.67;96922.34;10285143;28;97176;-85
2022/03/19 21:54:23;;;;;;;38.08;23.85;;;;;;;4.87;62.01;96924.31;10281188;28;96952;-85
2022/03/19 21:59:27;;;;;;;33.03;21.63;;;;;;;4.86;61.74;96922.66;10278516;28;98876;-86
2022/03/19 22:04:31;;;;;;;34.83;22.05;;;;;;;4.88;60.60;96926.81;10284037;28;100437;-86
2022/03/19 22:09:34;;;;;;;38.50;22.88;;;;;;;4.80;61.07;96928.22;10287889;28;96839;-86
2022/03/19 22:14:39;;;;;;;37.00;23.80;;;;;;;4.73;61.66;96928.59;10287661;28;97451;-86
2022/03/19 22:25:01;;;;;;;38.97;23.25;;;;;;;4.48;62.71;96937.03;10268563;28;98973;-85
2022/03/19 22:30:07;;;;;;;34.45;21.77;;;;;;;4.28;63.41;96932.22;10291888;28;97097;-86
2022/03/19 22:35:11;;;;;;;35.85;21.63;;;;;;;4.17;63.71;96936.25;10282135;28;97188;-86
2022/03/19 22:40:17;;;;;;;37.13;23.43;;;;;;;3.96;64.59;96927.19;10275883;28;96801;-86
2022/03/19 22:45:22;;;;;;;40.90;23.05;;;;;;;3.95;64.91;96925.53;10279202;28;96806;-84
2022/03/19 22:50:26;;;;;;;55.25;33.35;;;;;;;4.05;64.20;96921.47;10278896;28;96933;-85
2022/03/19 22:55:29;;;;;;;36.13;22.63;;;;;;;4.11;63.34;96925.47;10277304;28;97053;-85
2022/03/19 23:00:47;;;;;;;43.85;25.27;;;;;;;4.25;62.71;96927.25;10283844;28;96866;-86
2022/03/19 23:05:51;;;;;;;30.30;19.70;;;;;;;4.25;61.84;96928.06;10285156;28;99834;-85
2022/03/19 23:16:15;;;;;;;35.30;20.10;;;;;;;4.20;61.84;96936.09;10271746;28;98917;-85
2022/03/19 23:21:18;;;;;;;36.70;22.57;;;;;;;4.17;61.35;96933.69;10275314;28;97647;-85
2022/03/19 23:26:22;;;;;;;47.42;28.55;;;;;;;3.98;62.75;96946.03;10276919;28;97598;-85
2022/03/19 23:31:27;;;;;;;46.13;28.38;;;;;;;3.67;64.01;96946.97;10275115;28;96912;-85
2022/03/19 23:36:30;;;;;;;43.90;25.60;;;;;;;3.69;64.71;96948.56;10267719;28;96945;-85
2022/03/19 23:41:33;;;;;;;35.00;22.20;;;;;;;3.55;65.73;96956.25;10280546;28;96898;-85
2022/03/19 23:46:38;;;;;;;39.90;24.40;;;;;;;3.43;65.99;96966.38;10288319;28;96843;-85
2022/03/19 23:51:41;;;;;;;42.43;25.67;;;;;;;3.65;65.07;96959.97;10266837;28;96790;-85
2022/03/19 23:56:44;;;;;;;42.33;24.65;;;;;;;3.57;66.08;96960.44;10294495;28;97550;-85
